Historique des mesures à Cassis (13260), France
Quotidien Résumé Avril 1, 2017 Unités:  US    Métrique   Métrique/US
« Précédent (Jour)
Suivant (Jour) »
Quotidien Hebdomadaire Mensuel Annuel Période au choix
  Maximum: Minimum: Moyenne:
Température: 32 °F 49.3 °F 53.6 °F
Point de rosée: 32 °F 42.4 °F 46.2 °F
Humidité: Humidity % 61 % 73 %
Vitesse du vent: WindSpeedKMH mph 0.0 mph 3.4 mph
Rafales: WindSpeedGustKMH mph - -
Vent:- - South
Pression: 0 in 29.8 in -
Précipitations: 330.2 in    
Historical Graphs
 
 
Mesures pour : Avril 1, 2017
Heure Temperature Point de rosée Pression Vent Vitesse du vent Rafales Humidité Pluie (par heure) Conditions
32 °F 32 °F 0 in Calm     Humidity % 0 in SoftwareType W/m2
00:11 57.6 °F 48.6 °F 30 in Calm     72 % 0 in open2300-1.11 W/m2
01:11 56.5 °F 46.8 °F 30 in Calm     70 % 0 in open2300-1.11 W/m2
02:11 56.1 °F 43.2 °F 29.9 in NNE 1.4 mph 1.4 mph 62 % 0 in open2300-1.11 W/m2
03:11 55.8 °F 42.4 °F 29.9 in ENE 2.1 mph 2.1 mph 61 % 0 in open2300-1.11 W/m2
04:11 54.9 °F 46.2 °F 29.9 in North 1.4 mph 7.2 mph 73 % 0 in open2300-1.11 W/m2
05:11 54 °F 45.1 °F 29.9 in Calm     72 % 0 in open2300-1.11 W/m2
06:11 54.7 °F 45.9 °F 29.9 in Calm     72 % 0 in open2300-1.11 W/m2
07:11 55.2 °F 47.7 °F 29.9 in ESE 4.0 mph 4.0 mph 76 % 0 in open2300-1.11 W/m2
08:11 55.2 °F 48.4 °F 29.9 in ESE 5.0 mph 6.4 mph 78 % 0 in open2300-1.11 W/m2
09:11 56.1 °F 48.6 °F 29.8 in ESE 1.4 mph 2.9 mph 76 % 0 in open2300-1.11 W/m2
10:11 56.8 °F 47.1 °F 29.8 in Calm   4.0 mph 70 % 0 in open2300-1.11 W/m2
11:11 58.6 °F 46.6 °F 29.8 in SSE 5.5 mph 7.2 mph 64 % 0 in open2300-1.11 W/m2
12:11 58.3 °F 46.6 °F 29.9 in ESE 2.6 mph 4.0 mph 65 % 0 in open2300-1.11 W/m2
13:11 55 °F 47.7 °F 29.8 in Calm   2.1 mph 76 % 63.5 in open2300-1.11 W/m2
14:11 54.1 °F 48.6 °F 29.8 in North 1.1 mph 2.9 mph 81 % 50.8 in open2300-1.11 W/m2
15:11 54 °F 48.9 °F 29.8 in Calm   2.9 mph 83 % 91.44 in open2300-1.11 W/m2
16:11 54.5 °F 49.5 °F 29.8 in NW 4.0 mph 4.0 mph 83 % 12.7 in open2300-1.11 W/m2
17:11 54.3 °F 48.9 °F 29.8 in NNW 2.1 mph 5.5 mph 82 % 0 in open2300-1.11 W/m2
18:11 54 °F 48.9 °F 29.8 in NW 3.5 mph 6.4 mph 83 % 12.7 in open2300-1.11 W/m2
19:11 52 °F 46.9 °F 29.8 in North 8.2 mph 20.6 mph 83 % 38.1 in open2300-1.11 W/m2
20:11 50.5 °F 45.5 °F 29.8 in NW 23.8 mph 23.8 mph 83 % 12.7 in open2300-1.11 W/m2
21:11 50.2 °F 45.1 °F 29.8 in NNW 5.8 mph 8.7 mph 83 % 0 in open2300-1.11 W/m2
22:11 49.6 °F 45.1 °F 29.9 in NNW 9.3 mph 9.3 mph 85 % 25.4 in open2300-1.11 W/m2
23:11 49.3 °F 45 °F 29.9 in NNW 4.3 mph 4.3 mph 85 % 12.7 in open2300-1.11 W/m2
Observations météo à CASSIS
WU-History script by Weather Underground - 1 mb